Time;durP1;ratioP1;P1;durP2;ratioP2;P2;SDS_P1;SDS_P2;PMS_P1;PMS_P2;Temp;Humidity;BMP_temperature;BMP_pressure;BME280_temperature;BME280_humidity;BME280_pressure;Samples;Min_cycle;Max_cycle;Signal;HPM_P1;HPM_P2
2022/10/25 00:00:04;;;;;;;9.23;1.98;;;12.40;99.90;;;;;;7319801;32;20156;-59
2022/10/25 00:04:06;;;;;;;14.65;2.10;;;12.30;99.90;;;;;;7313001;32;20211;-61
2022/10/25 00:08:08;;;;;;;14.07;2.03;;;12.30;99.90;;;;;;7309543;32;20107;-59
2022/10/25 00:12:10;;;;;;;15.90;1.90;;;12.30;99.90;;;;;;7313632;32;20101;-59
2022/10/25 00:16:14;;;;;;;11.55;1.70;;;12.20;99.90;;;;;;7310196;32;20112;-60
2022/10/25 00:20:16;;;;;;;10.90;1.67;;;12.30;99.90;;;;;;7311615;32;20520;-59
2022/10/25 00:24:18;;;;;;;14.32;1.85;;;12.30;99.90;;;;;;7318851;32;20115;-60
2022/10/25 00:28:20;;;;;;;10.13;1.67;;;12.40;99.90;;;;;;7311169;32;20245;-60
2022/10/25 00:32:22;;;;;;;11.82;1.60;;;12.40;99.90;;;;;;7314644;32;20126;-60
2022/10/25 00:36:25;;;;;;;10.27;1.50;;;12.40;99.90;;;;;;7314284;32;20116;-61
2022/10/25 00:40:27;;;;;;;14.93;1.98;;;12.50;99.90;;;;;;7317588;32;20099;-61
2022/10/25 00:44:49;;;;;;;7.93;1.42;;;12.50;99.90;;;;;;7314795;32;20108;-60
2022/10/25 00:49:17;;;;;;;9.50;1.60;;;12.70;99.90;;;;;;7318888;32;20130;-59
2022/10/25 00:53:24;;;;;;;13.77;1.67;;;12.60;99.90;;;;;;7309828;32;20144;-59
2022/10/25 00:57:38;;;;;;;14.17;1.53;;;12.70;99.90;;;;;;7313661;32;20195;-60
2022/10/25 01:01:40;;;;;;;7.80;1.30;;;12.80;99.90;;;;;;7316572;32;20107;-60
2022/10/25 01:05:43;;;;;;;11.48;2.15;;;12.90;99.90;;;;;;7320855;32;20973;-60
2022/10/25 01:09:45;;;;;;;11.98;1.40;;;12.90;99.90;;;;;;7318354;32;20245;-61
2022/10/25 01:13:48;;;;;;;9.25;1.52;;;13.10;99.90;;;;;;7315907;32;20808;-60
2022/10/25 01:18:15;;;;;;;8.90;1.45;;;13.10;99.90;;;;;;7315662;32;20550;-60
2022/10/25 01:22:32;;;;;;;12.27;1.98;;;13.10;99.90;;;;;;7323521;32;20125;-61
2022/10/25 01:26:41;;;;;;;7.45;1.23;;;13.20;99.90;;;;;;7316807;32;20647;-60
2022/10/25 01:31:00;;;;;;;6.97;1.62;;;13.30;99.90;;;;;;7315482;32;20120;-60
2022/10/25 01:35:27;;;;;;;10.57;1.83;;;13.30;99.90;;;;;;7317988;32;20112;-60
2022/10/25 01:39:34;;;;;;;5.60;1.33;;;13.40;99.90;;;;;;7315865;32;20104;-61
2022/10/25 01:43:41;;;;;;;10.88;1.50;;;13.30;99.90;;;;;;7312254;32;20256;-59
2022/10/25 01:47:48;;;;;;;12.27;1.83;;;13.40;99.90;;;;;;7317437;32;20122;-60
2022/10/25 01:51:50;;;;;;;7.87;1.25;;;13.30;99.90;;;;;;7317788;32;20139;-59
2022/10/25 01:55:59;;;;;;;10.73;1.80;;;13.30;99.90;;;;;;7315180;32;20111;-60
2022/10/25 02:00:11;;;;;;;6.95;1.20;;;13.40;99.90;;;;;;7319345;32;20115;-60
2022/10/25 02:04:18;;;;;;;6.78;1.50;;;13.30;99.90;;;;;;7319931;32;20194;-59
2022/10/25 02:08:29;;;;;;;12.15;1.30;;;13.40;99.90;;;;;;7315765;32;20142;-59
2022/10/25 02:12:55;;;;;;;10.05;1.48;;;13.40;99.90;;;;;;7319186;32;20124;-60
2022/10/25 02:17:06;;;;;;;7.82;1.10;;;13.30;99.90;;;;;;7320584;32;20550;-60
2022/10/25 02:21:11;;;;;;;9.90;1.52;;;13.30;99.90;;;;;;7317480;32;20111;-60
2022/10/25 02:25:13;;;;;;;5.65;1.40;;;13.20;99.90;;;;;;7318300;32;20225;-59
2022/10/25 02:29:17;;;;;;;8.60;1.67;;;13.00;99.90;;;;;;7323651;32;20524;-60
2022/10/25 02:33:19;;;;;;;10.13;1.52;;;13.10;99.90;;;;;;7310315;32;20103;-61
2022/10/25 02:37:21;;;;;;;10.32;2.47;;;12.90;99.90;;;;;;7315382;32;20134;-59
2022/10/25 02:41:23;;;;;;;8.18;1.65;;;12.90;99.90;;;;;;7314775;32;20133;-61
2022/10/25 02:45:25;;;;;;;7.25;1.55;;;12.90;99.90;;;;;;7317365;32;21056;-61
2022/10/25 02:49:27;;;;;;;5.72;1.55;;;13.00;99.90;;;;;;7318683;32;20139;-60
2022/10/25 02:53:29;;;;;;;10.25;1.55;;;13.10;99.90;;;;;;7327892;32;20553;-59
2022/10/25 02:57:36;;;;;;;9.50;1.48;;;13.10;99.90;;;;;;7319122;32;20108;-60
2022/10/25 03:01:38;;;;;;;9.00;1.17;;;13.10;99.90;;;;;;7314302;32;20485;-58
2022/10/25 03:05:39;;;;;;;10.80;1.20;;;13.10;99.90;;;;;;7321278;32;20246;-59
2022/10/25 03:09:41;;;;;;;12.75;1.40;;;13.10;99.90;;;;;;7315148;32;20222;-58
2022/10/25 03:13:43;;;;;;;7.30;1.30;;;13.20;99.90;;;;;;7320290;32;20115;-59
2022/10/25 03:17:45;;;;;;;10.00;1.50;;;13.30;99.90;;;;;;7315528;32;20224;-59
2022/10/25 03:21:47;;;;;;;6.25;1.50;;;13.20;99.90;;;;;;7319572;32;20150;-60
2022/10/25 03:25:54;;;;;;;8.38;1.40;;;13.30;99.90;;;;;;7314210;32;20116;-59
2022/10/25 03:29:56;;;;;;;6.75;1.17;;;13.20;99.90;;;;;;7315619;32;20583;-60
2022/10/25 03:33:57;;;;;;;6.50;0.93;;;13.20;99.90;;;;;;7313872;32;20111;-59
2022/10/25 03:37:59;;;;;;;10.45;1.30;;;13.10;99.90;;;;;;7309094;32;20115;-59
2022/10/25 03:42:01;;;;;;;7.97;1.20;;;13.20;99.90;;;;;;7312935;32;20598;-59
2022/10/25 03:46:02;;;;;;;8.10;1.60;;;13.20;99.90;;;;;;7318223;32;20562;-59
2022/10/25 03:50:05;;;;;;;10.88;1.42;;;13.10;99.90;;;;;;7314218;32;20115;-59
2022/10/25 03:54:07;;;;;;;10.27;1.80;;;13.10;99.90;;;;;;7313353;32;20773;-59
2022/10/25 03:58:09;;;;;;;9.00;1.70;;;13.00;99.90;;;;;;7328610;32;20182;-59
2022/10/25 04:02:11;;;;;;;13.50;1.62;;;13.10;99.90;;;;;;7311271;32;20134;-61
2022/10/25 04:06:13;;;;;;;13.32;1.75;;;13.20;99.90;;;;;;7324268;32;20205;-61
2022/10/25 04:10:18;;;;;;;12.35;1.77;;;13.20;99.90;;;;;;7315060;32;20241;-59
2022/10/25 04:14:19;;;;;;;11.75;2.12;;;13.20;99.90;;;;;;7320446;32;20108;-59
2022/10/25 04:18:21;;;;;;;7.05;1.60;;;13.20;99.90;;;;;;7313770;32;20198;-59
2022/10/25 04:22:23;;;;;;;10.02;1.62;;;13.30;99.90;;;;;;7310949;32;20115;-59
2022/10/25 04:26:25;;;;;;;7.82;1.52;;;13.30;99.90;;;;;;7311553;32;20207;-60
2022/10/25 04:30:27;;;;;;;6.05;1.40;;;13.20;99.90;;;;;;7314539;32;21014;-60
2022/10/25 04:34:29;;;;;;;9.10;1.55;;;13.20;99.90;;;;;;7319371;32;20158;-60
2022/10/25 04:38:30;;;;;;;10.35;1.95;;;13.30;99.90;;;;;;7317926;32;20111;-62
2022/10/25 04:42:33;;;;;;;9.43;1.45;;;13.20;99.90;;;;;;7315989;32;20107;-59
2022/10/25 04:46:35;;;;;;;8.73;1.62;;;13.10;99.90;;;;;;7316619;32;20190;-59
2022/10/25 04:50:37;;;;;;;9.05;1.73;;;13.20;99.90;;;;;;7319636;32;20138;-61
2022/10/25 04:54:38;;;;;;;11.48;1.60;;;13.20;99.90;;;;;;7317738;32;20135;-61
2022/10/25 04:58:40;;;;;;;12.85;1.87;;;13.30;99.90;;;;;;7318364;32;20108;-60
2022/10/25 05:02:42;;;;;;;12.63;2.70;;;13.30;99.90;;;;;;7326978;32;20108;-59
2022/10/25 05:06:43;;;;;;;10.55;1.75;;;13.30;99.90;;;;;;7320481;32;20111;-59
2022/10/25 05:10:53;;;;;;;9.13;1.67;;;13.30;99.90;;;;;;7323684;32;20290;-60
2022/10/25 05:14:55;;;;;;;9.95;1.95;;;13.40;99.90;;;;;;7322757;32;20240;-60
2022/10/25 05:18:57;;;;;;;11.52;2.03;;;13.40;99.90;;;;;;7320360;32;20483;-62
2022/10/25 05:22:58;;;;;;;10.98;1.73;;;13.30;99.90;;;;;;7318390;32;20111;-60
2022/10/25 05:27:00;;;;;;;10.93;2.28;;;13.40;99.90;;;;;;7320563;32;20119;-59
2022/10/25 05:31:13;;;;;;;7.72;2.20;;;13.40;99.90;;;;;;7320396;32;20116;-61
2022/10/25 05:35:14;;;;;;;8.48;1.92;;;13.30;99.90;;;;;;7323062;32;20126;-59
2022/10/25 05:39:16;;;;;;;10.10;2.40;;;13.40;99.90;;;;;;7320230;32;20778;-60
2022/10/25 05:43:18;;;;;;;9.73;2.12;;;13.40;99.90;;;;;;7318242;32;20464;-60
2022/10/25 05:47:19;;;;;;;11.65;2.22;;;13.20;99.90;;;;;;7312151;32;20663;-59
2022/10/25 05:51:25;;;;;;;7.50;2.30;;;13.20;99.90;;;;;;7311123;32;20442;-59
2022/10/25 05:55:36;;;;;;;7.82;2.33;;;13.20;99.90;;;;;;7319410;32;20635;-60
2022/10/25 05:59:37;;;;;;;10.02;2.67;;;13.30;99.90;;;;;;7322796;32;20103;-60
2022/10/25 06:03:39;;;;;;;7.37;2.20;;;13.20;99.90;;;;;;7315889;32;20100;-59
2022/10/25 06:07:41;;;;;;;8.80;2.42;;;13.20;99.90;;;;;;7323044;32;20112;-59
2022/10/25 06:11:43;;;;;;;10.02;2.25;;;13.30;99.90;;;;;;7320192;32;20177;-59
2022/10/25 06:15:45;;;;;;;8.82;2.45;;;13.30;99.90;;;;;;7318792;32;20194;-65
2022/10/25 06:19:47;;;;;;;8.32;2.92;;;13.20;99.90;;;;;;7322842;32;20559;-66
2022/10/25 06:23:49;;;;;;;9.40;2.58;;;13.30;99.90;;;;;;7315338;32;20104;-65
2022/10/25 06:27:51;;;;;;;7.50;2.42;;;13.30;99.90;;;;;;7332899;32;20129;-62
2022/10/25 06:31:52;;;;;;;11.68;2.95;;;13.30;99.90;;;;;;7312234;32;20111;-63
2022/10/25 06:35:56;;;;;;;11.07;3.10;;;13.30;99.90;;;;;;7311194;32;20208;-64
2022/10/25 06:39:57;;;;;;;13.30;2.85;;;13.20;99.90;;;;;;7310288;32;20108;-63
2022/10/25 06:43:59;;;;;;;8.00;1.60;;;13.10;99.90;;;;;;7317479;32;20183;-62
2022/10/25 06:48:07;;;;;;;11.75;2.25;;;13.10;99.90;;;;;;7312247;32;20172;-64
2022/10/25 06:52:09;;;;;;;11.90;2.28;;;13.00;99.90;;;;;;7314870;32;20523;-63
2022/10/25 06:56:12;;;;;;;10.50;1.98;;;13.10;99.90;;;;;;7310379;32;20226;-64
2022/10/25 07:00:15;;;;;;;11.05;2.47;;;13.20;99.90;;;;;;7314830;32;20770;-63
2022/10/25 07:04:17;;;;;;;8.55;1.60;;;13.30;99.90;;;;;;7314660;32;20123;-63
2022/10/25 07:08:19;;;;;;;7.97;2.00;;;13.30;99.90;;;;;;7314504;32;20103;-63
2022/10/25 07:12:21;;;;;;;11.50;3.03;;;13.30;99.90;;;;;;7315169;32;20191;-63
2022/10/25 07:16:23;;;;;;;9.75;1.85;;;13.30;99.90;;;;;;7314454;32;20111;-67
2022/10/25 07:20:25;;;;;;;11.20;1.77;;;13.40;99.90;;;;;;7312150;32;20206;-66
2022/10/25 07:24:27;;;;;;;8.25;1.60;;;13.50;99.90;;;;;;7309467;32;20452;-63
2022/10/25 07:28:28;;;;;;;7.32;2.08;;;13.70;99.90;;;;;;7311795;32;20107;-63
2022/10/25 07:32:30;;;;;;;9.52;2.12;;;13.70;99.90;;;;;;7314031;32;20111;-63
2022/10/25 07:36:32;;;;;;;11.70;2.00;;;13.80;99.90;;;;;;7309954;32;20139;-64
2022/10/25 07:40:34;;;;;;;9.98;2.00;;;13.70;99.90;;;;;;7310450;32;20253;-63
2022/10/25 07:44:35;;;;;;;7.68;2.00;;;13.80;99.90;;;;;;7317714;32;20598;-64
2022/10/25 07:48:37;;;;;;;8.27;1.55;;;13.70;99.90;;;;;;7311193;32;20111;-64
2022/10/25 07:52:39;;;;;;;10.10;1.65;;;13.70;99.90;;;;;;7310949;32;20138;-63
2022/10/25 07:56:41;;;;;;;7.87;1.62;;;13.80;99.90;;;;;;7308957;32;20112;-65
2022/10/25 08:00:42;;;;;;;8.95;1.77;;;13.90;99.90;;;;;;7313601;32;20101;-63
2022/10/25 08:04:44;;;;;;;13.60;2.33;;;14.00;99.90;;;;;;7314393;32;20587;-63
2022/10/25 08:08:46;;;;;;;6.95;2.03;;;14.10;99.90;;;;;;7318631;32;20459;-65
2022/10/25 08:12:48;;;;;;;9.45;2.55;;;14.10;99.90;;;;;;7321013;32;20139;-61
2022/10/25 08:16:50;;;;;;;5.45;1.20;;;14.10;99.90;;;;;;7315151;32;20199;-61
2022/10/25 08:20:52;;;;;;;7.00;1.58;;;14.30;99.90;;;;;;7319094;32;20179;-64
2022/10/25 08:25:09;;;;;;;4.37;1.33;;;14.40;99.90;;;;;;7319533;32;20229;-64
2022/10/25 08:29:11;;;;;;;5.50;1.50;;;14.40;99.90;;;;;;7313544;32;20111;-64
2022/10/25 08:33:12;;;;;;;10.00;2.28;;;14.30;99.90;;;;;;7317438;32;20190;-63
2022/10/25 08:37:14;;;;;;;6.57;1.83;;;14.20;99.90;;;;;;7314965;32;20130;-63
2022/10/25 08:41:39;;;;;;;11.93;2.17;;;14.30;99.90;;;;;;7318800;32;20229;-64
2022/10/25 08:45:52;;;;;;;8.90;1.65;;;14.50;99.90;;;;;;7318363;32;20134;-62
2022/10/25 08:50:11;;;;;;;7.65;1.52;;;14.70;99.90;;;;;;7316991;32;20778;-62
2022/10/25 08:54:16;;;;;;;6.10;1.48;;;14.90;99.90;;;;;;7319807;32;20226;-63
2022/10/25 08:58:21;;;;;;;7.35;1.50;;;15.00;99.90;;;;;;7318496;32;20130;-63
2022/10/25 09:02:47;;;;;;;9.35;1.80;;;15.00;99.90;;;;;;7316237;32;20969;-63
2022/10/25 09:06:55;;;;;;;8.93;1.70;;;15.20;99.90;;;;;;7317224;32;20139;-62
2022/10/25 09:11:16;;;;;;;8.90;1.70;;;15.30;99.90;;;;;;7320220;32;20852;-64
2022/10/25 09:15:36;;;;;;;6.90;1.73;;;15.20;99.90;;;;;;7318395;32;20127;-63
2022/10/25 09:19:52;;;;;;;13.02;1.83;;;15.10;99.90;;;;;;7313594;32;20523;-63
2022/10/25 09:24:11;;;;;;;7.95;1.80;;;15.00;99.90;;;;;;7312923;32;20145;-62
2022/10/25 09:28:20;;;;;;;7.45;1.77;;;15.10;99.90;;;;;;7318654;32;20178;-63
2022/10/25 09:32:51;;;;;;;5.70;1.92;;;15.30;99.90;;;;;;7317555;32;20531;-63
2022/10/25 09:37:15;;;;;;;7.18;1.50;;;15.50;99.90;;;;;;7320932;32;20290;-63
2022/10/25 09:41:41;;;;;;;4.80;1.33;;;15.80;99.90;;;;;;7315313;32;20547;-64
2022/10/25 09:45:55;;;;;;;7.37;1.52;;;15.90;99.90;;;;;;7314568;32;20558;-63
2022/10/25 09:50:10;;;;;;;8.20;1.50;;;15.80;99.90;;;;;;7309717;32;20745;-63
2022/10/25 09:54:27;;;;;;;6.82;1.20;;;15.60;99.90;;;;;;7320916;32;20271;-62
2022/10/25 09:58:34;;;;;;;5.20;1.40;;;15.60;99.90;;;;;;7311190;32;20116;-62
2022/10/25 10:02:36;;;;;;;7.47;1.48;;;15.50;99.90;;;;;;7312272;32;20255;-63
2022/10/25 10:06:39;;;;;;;5.55;1.40;;;15.50;99.90;;;;;;7314116;32;20115;-65
2022/10/25 10:10:41;;;;;;;5.53;1.17;;;15.60;99.90;;;;;;7316105;32;20487;-64
2022/10/25 10:15:10;;;;;;;6.80;1.33;;;15.60;99.90;;;;;;7315059;32;20661;-63
2022/10/25 10:19:14;;;;;;;5.62;0.98;;;15.60;99.90;;;;;;7311407;32;20104;-66
2022/10/25 10:23:16;;;;;;;5.87;1.20;;;15.50;99.90;;;;;;7310796;32;20389;-66
2022/10/25 10:27:21;;;;;;;7.50;1.52;;;15.50;99.90;;;;;;7314272;32;20126;-63
2022/10/25 10:31:23;;;;;;;4.10;1.30;;;15.50;99.90;;;;;;7310029;32;20541;-63
2022/10/25 10:35:34;;;;;;;3.65;1.12;;;15.50;99.90;;;;;;7308296;32;20121;-63
2022/10/25 10:40:06;;;;;;;4.15;1.40;;;15.50;99.90;;;;;;7311570;32;20142;-63
2022/10/25 10:44:12;;;;;;;6.40;1.50;;;15.60;99.90;;;;;;7313460;32;20237;-63
2022/10/25 10:48:20;;;;;;;8.20;1.70;;;15.70;99.90;;;;;;7297026;32;20225;-63
2022/10/25 10:52:33;;;;;;;5.75;1.52;;;15.80;99.90;;;;;;7309884;32;20249;-63
2022/10/25 10:56:35;;;;;;;5.15;1.40;;;15.90;99.90;;;;;;7312320;32;20249;-63
2022/10/25 11:00:36;;;;;;;6.50;1.50;;;15.70;99.90;;;;;;7317879;32;20210;-63
2022/10/25 11:04:49;;;;;;;7.07;1.25;;;15.70;99.90;;;;;;7315424;32;20995;-65
2022/10/25 11:09:11;;;;;;;6.93;1.10;;;15.70;99.90;;;;;;7310790;32;20199;-63
2022/10/25 11:13:18;;;;;;;7.45;1.17;;;15.80;99.90;;;;;;7315083;32;20104;-63
2022/10/25 11:17:30;;;;;;;4.37;0.90;;;16.10;99.90;;;;;;7310330;32;20108;-64
2022/10/25 11:21:54;;;;;;;7.70;0.90;;;16.20;99.90;;;;;;7308121;32;20103;-63
2022/10/25 11:26:38;;;;;;;5.30;1.33;;;16.20;99.90;;;;;;7314544;32;20282;-59
2022/10/25 11:31:14;;;;;;;6.05;1.50;;;16.50;99.90;;;;;;7302418;32;20645;-60
2022/10/25 11:35:39;;;;;;;4.43;0.70;;;16.80;99.90;;;;;;7305719;32;20115;-60
2022/10/25 11:39:57;;;;;;;7.75;1.33;;;17.00;99.90;;;;;;7309484;32;20781;-59
2022/10/25 11:44:22;;;;;;;6.18;1.00;;;17.00;99.90;;;;;;7304735;32;20142;-59
2022/10/25 11:48:54;;;;;;;3.75;1.00;;;16.80;99.90;;;;;;7317053;32;20221;-59
2022/10/25 11:53:08;;;;;;;4.65;0.90;;;16.60;99.90;;;;;;7310850;32;20103;-59
2022/10/25 11:57:24;;;;;;;4.90;0.90;;;16.40;99.90;;;;;;7308234;32;20112;-59
2022/10/25 12:02:02;;;;;;;6.53;1.20;;;16.60;99.90;;;;;;7313122;32;20130;-60
2022/10/25 12:06:15;;;;;;;4.50;0.90;;;16.80;99.90;;;;;;7309445;32;20131;-63
2022/10/25 12:10:38;;;;;;;5.05;0.90;;;16.90;99.90;;;;;;7307040;32;20222;-63
2022/10/25 12:14:45;;;;;;;7.93;1.30;;;17.00;99.90;;;;;;7304884;32;20207;-64
2022/10/25 12:19:07;;;;;;;9.77;1.57;;;17.10;99.90;;;;;;7308950;32;20265;-64
2022/10/25 12:23:15;;;;;;;3.58;1.00;;;16.80;99.90;;;;;;7306563;32;20248;-65
2022/10/25 12:27:21;;;;;;;4.78;1.30;;;16.80;99.90;;;;;;7305022;32;20258;-64
2022/10/25 12:31:27;;;;;;;5.95;1.70;;;16.90;99.90;;;;;;7304368;32;20249;-62
2022/10/25 12:35:34;;;;;;;5.75;1.25;;;17.00;99.90;;;;;;7314174;32;20489;-64
2022/10/25 12:39:41;;;;;;;5.82;1.20;;;17.00;99.90;;;;;;7310218;32;20108;-62
2022/10/25 12:44:10;;;;;;;4.78;1.08;;;16.90;99.90;;;;;;7311432;32;20210;-61
2022/10/25 12:48:33;;;;;;;5.82;0.90;;;16.80;99.90;;;;;;7308795;32;21057;-62
2022/10/25 12:52:43;;;;;;;7.40;1.33;;;16.60;99.90;;;;;;7309400;32;20127;-61
2022/10/25 12:57:13;;;;;;;12.57;1.25;;;16.50;99.90;;;;;;7315389;32;20460;-61
2022/10/25 13:01:23;;;;;;;5.70;1.42;;;16.50;99.90;;;;;;7308007;32;20515;-62
2022/10/25 13:05:50;;;;;;;3.58;1.02;;;16.50;99.90;;;;;;7320107;32;20774;-63
2022/10/25 13:09:52;;;;;;;4.85;0.98;;;16.60;99.90;;;;;;7320127;32;20143;-61
2022/10/25 13:13:54;;;;;;;5.15;1.20;;;16.50;99.90;;;;;;7310546;32;20327;-61
2022/10/25 13:18:05;;;;;;;5.62;0.88;;;16.40;99.90;;;;;;7314241;32;20112;-63
2022/10/25 13:22:29;;;;;;;5.12;0.88;;;16.40;99.90;;;;;;7315364;32;20208;-62
2022/10/25 13:27:13;;;;;;;9.07;1.30;;;16.50;99.90;;;;;;7314223;32;20210;-62
2022/10/25 13:31:33;;;;;;;7.22;1.00;;;16.80;99.90;;;;;;7311359;32;20860;-63
2022/10/25 13:35:35;;;;;;;6.68;1.20;;;16.90;99.90;;;;;;7326659;32;20228;-62
2022/10/25 13:39:44;;;;;;;5.32;0.80;;;16.90;99.90;;;;;;7331376;32;20233;-63
2022/10/25 13:44:01;;;;;;;7.72;0.80;;;16.80;99.90;;;;;;7318215;32;20194;-61
2022/10/25 13:48:17;;;;;;;5.15;0.60;;;16.80;99.90;;;;;;7322536;32;20107;-61
2022/10/25 13:52:32;;;;;;;3.00;0.90;;;16.80;99.90;;;;;;7317256;32;20162;-62
2022/10/25 13:56:35;;;;;;;3.72;0.70;;;16.70;99.90;;;;;;7319872;32;20229;-63
2022/10/25 14:00:43;;;;;;;3.12;0.52;;;16.80;99.90;;;;;;7311593;32;20203;-61
2022/10/25 14:04:51;;;;;;;5.68;0.70;;;16.90;99.90;;;;;;7318367;32;20187;-62
2022/10/25 14:09:11;;;;;;;4.22;0.60;;;16.90;99.90;;;;;;7317618;32;20570;-61
2022/10/25 14:13:23;;;;;;;6.37;0.77;;;16.90;99.90;;;;;;7322033;32;20469;-64
2022/10/25 14:17:42;;;;;;;4.50;0.57;;;16.80;99.90;;;;;;7320348;32;20138;-60
2022/10/25 14:21:47;;;;;;;5.93;0.60;;;16.80;99.90;;;;;;7323369;32;20131;-61
2022/10/25 14:26:01;;;;;;;5.20;0.95;;;16.70;99.90;;;;;;7320067;32;20111;-61
2022/10/25 14:30:28;;;;;;;5.85;1.05;;;16.60;99.90;;;;;;7319531;32;20854;-62
2022/10/25 14:34:30;;;;;;;4.97;0.60;;;16.40;99.90;;;;;;7318171;32;20253;-62
2022/10/25 14:38:49;;;;;;;4.40;0.60;;;16.50;99.90;;;;;;7321332;32;20100;-61
2022/10/25 14:42:54;;;;;;;3.20;0.80;;;16.40;99.90;;;;;;7315390;32;20161;-61
2022/10/25 14:46:57;;;;;;;5.53;1.27;;;16.40;99.90;;;;;;7323675;32;20592;-64
2022/10/25 14:51:12;;;;;;;1.30;0.68;;;16.20;99.90;;;;;;7321278;32;20157;-61
2022/10/25 14:55:28;;;;;;;6.43;0.85;;;16.20;99.90;;;;;;7319044;32;20112;-61
2022/10/25 14:59:45;;;;;;;4.53;0.60;;;16.20;99.90;;;;;;7319383;32;20188;-62
2022/10/25 15:03:50;;;;;;;4.85;0.70;;;16.10;99.90;;;;;;7319679;32;20134;-61
2022/10/25 15:07:56;;;;;;;4.75;0.77;;;16.10;99.90;;;;;;7318107;32;20183;-61
2022/10/25 15:12:23;;;;;;;3.90;0.80;;;16.00;99.90;;;;;;7322906;32;20134;-61
2022/10/25 15:16:36;;;;;;;5.17;0.73;;;15.90;99.90;;;;;;7314931;32;20165;-61
2022/10/25 15:20:38;;;;;;;3.08;0.47;;;15.90;99.90;;;;;;7319222;32;20205;-61
2022/10/25 15:24:44;;;;;;;2.62;0.60;;;16.00;99.90;;;;;;7318928;32;20568;-61
2022/10/25 15:28:53;;;;;;;4.43;0.82;;;16.00;99.90;;;;;;7320051;32;20107;-60
2022/10/25 15:32:54;;;;;;;3.25;0.70;;;15.90;99.90;;;;;;7320437;32;20693;-61
2022/10/25 15:36:57;;;;;;;6.05;1.00;;;15.70;99.90;;;;;;7319433;32;20575;-61
2022/10/25 15:40:58;;;;;;;3.28;0.73;;;15.80;99.90;;;;;;7317031;32;20138;-63
2022/10/25 15:45:03;;;;;;;6.97;1.02;;;15.70;99.90;;;;;;7324110;32;20134;-61
2022/10/25 15:49:07;;;;;;;8.70;0.77;;;15.70;99.90;;;;;;7316692;32;20111;-61
2022/10/25 15:53:10;;;;;;;2.70;0.60;;;15.60;99.90;;;;;;7315415;32;20596;-61
2022/10/25 15:57:12;;;;;;;8.25;0.90;;;15.60;99.90;;;;;;7318833;32;20134;-61
2022/10/25 16:01:14;;;;;;;5.80;0.85;;;15.40;99.90;;;;;;7317093;32;20603;-61
2022/10/25 16:05:22;;;;;;;3.40;0.70;;;15.30;99.90;;;;;;7317480;32;20111;-62
2022/10/25 16:09:24;;;;;;;2.60;0.90;;;15.10;99.90;;;;;;7319977;32;20103;-61
2022/10/25 16:13:32;;;;;;;6.20;0.90;;;15.00;99.90;;;;;;7319076;32;20115;-62
2022/10/25 16:17:34;;;;;;;4.12;0.93;;;14.90;99.90;;;;;;7315728;32;20170;-62
2022/10/25 16:21:36;;;;;;;4.75;0.80;;;14.70;99.90;;;;;;7316060;32;20187;-62
2022/10/25 16:25:38;;;;;;;6.20;1.27;;;14.50;99.90;;;;;;7309382;32;20245;-61
2022/10/25 16:29:40;;;;;;;5.50;0.95;;;14.30;99.90;;;;;;7331533;32;20344;-62
2022/10/25 16:33:41;;;;;;;5.07;1.10;;;14.10;99.90;;;;;;7319380;32;21036;-59
2022/10/25 16:37:43;;;;;;;3.53;1.02;;;13.90;99.90;;;;;;7321478;32;20128;-59
2022/10/25 16:41:46;;;;;;;8.60;1.65;;;13.70;99.90;;;;;;7318226;32;20546;-59
2022/10/25 16:45:48;;;;;;;8.57;2.15;;;13.40;99.90;;;;;;7317490;32;20198;-61
2022/10/25 16:49:50;;;;;;;7.80;1.70;;;13.30;99.90;;;;;;7318717;32;20126;-59
2022/10/25 16:53:52;;;;;;;11.57;1.65;;;13.00;99.90;;;;;;7320341;32;20130;-59
2022/10/25 16:57:55;;;;;;;7.65;1.77;;;12.80;99.90;;;;;;7317171;32;20096;-59
2022/10/25 17:01:57;;;;;;;12.55;1.90;;;12.60;99.90;;;;;;7319084;32;20150;-59
2022/10/25 17:05:59;;;;;;;19.48;2.85;;;12.50;99.90;;;;;;7325534;32;20664;-59
2022/10/25 17:10:05;;;;;;;12.97;1.53;;;12.30;99.90;;;;;;7326116;32;20139;-59
2022/10/25 17:14:11;;;;;;;13.10;1.50;;;12.20;99.90;;;;;;7327201;32;20111;-59
2022/10/25 17:18:18;;;;;;;13.45;1.67;;;12.00;99.90;;;;;;7320199;32;20263;-59
2022/10/25 17:22:20;;;;;;;16.05;1.25;;;11.90;99.90;;;;;;7316195;32;21598;-60
2022/10/25 17:26:22;;;;;;;9.82;4.12;;;11.80;99.90;;;;;;7317724;32;20535;-60
2022/10/25 17:30:24;;;;;;;14.75;2.08;;;11.70;99.90;;;;;;7322709;32;20532;-59
2022/10/25 17:34:25;;;;;;;11.98;1.52;;;11.60;99.90;;;;;;7323383;32;20107;-60
2022/10/25 17:38:27;;;;;;;16.35;1.70;;;11.50;99.90;;;;;;7316906;32;20108;-59
2022/10/25 17:42:29;;;;;;;18.50;1.62;;;11.40;99.90;;;;;;7320874;32;20115;-59
2022/10/25 17:46:31;;;;;;;25.37;1.95;;;11.30;99.90;;;;;;7325200;32;20135;-59
2022/10/25 17:50:35;;;;;;;14.18;1.42;;;11.10;99.90;;;;;;7324308;32;20174;-59
2022/10/25 17:54:38;;;;;;;16.75;1.80;;;11.00;99.90;;;;;;7320207;32;20137;-59
2022/10/25 17:58:41;;;;;;;14.35;2.03;;;11.00;99.90;;;;;;7319928;32;20135;-59
2022/10/25 18:02:49;;;;;;;16.83;1.20;;;10.90;99.90;;;;;;7317487;32;20129;-58
2022/10/25 18:06:51;;;;;;;10.60;1.50;;;10.80;99.90;;;;;;7320180;32;20116;-60
2022/10/25 18:10:52;;;;;;;18.48;1.80;;;10.70;99.90;;;;;;7317315;32;20535;-59
2022/10/25 18:14:54;;;;;;;14.15;1.40;;;10.70;99.90;;;;;;7323842;32;20111;-59
2022/10/25 18:18:59;;;;;;;17.30;1.92;;;10.60;99.90;;;;;;7313929;32;20198;-60
2022/10/25 18:23:00;;;;;;;10.60;1.67;;;10.60;99.90;;;;;;7324130;32;20167;-58
2022/10/25 18:27:02;;;;;;;15.57;2.50;;;10.60;99.90;;;;;;7318665;32;20191;-59
2022/10/25 18:31:06;;;;;;;22.30;1.85;;;10.60;99.90;;;;;;7318152;32;20130;-59
2022/10/25 18:35:08;;;;;;;22.30;2.08;;;10.60;99.90;;;;;;7319300;32;20199;-59
2022/10/25 18:39:10;;;;;;;15.15;1.70;;;10.60;99.90;;;;;;7312707;32;20905;-59
2022/10/25 18:43:12;;;;;;;16.40;1.70;;;10.70;99.90;;;;;;7316135;32;20104;-60
2022/10/25 18:47:13;;;;;;;8.07;1.42;;;10.70;99.90;;;;;;7318863;32;20135;-59
2022/10/25 18:51:15;;;;;;;30.73;2.22;;;10.60;99.90;;;;;;7313621;32;20122;-59
2022/10/25 18:55:17;;;;;;;15.85;1.73;;;10.70;99.90;;;;;;7318659;32;20563;-60
2022/10/25 18:59:24;;;;;;;8.60;2.37;;;10.70;99.90;;;;;;7316021;32;20125;-59
2022/10/25 19:03:25;;;;;;;12.18;2.35;;;10.70;99.90;;;;;;7319213;32;20124;-60
2022/10/25 19:07:27;;;;;;;11.18;2.45;;;10.70;99.90;;;;;;7317098;32;20206;-61
2022/10/25 19:11:29;;;;;;;17.87;3.17;;;10.70;99.90;;;;;;7311575;32;20207;-61
2022/10/25 19:15:31;;;;;;;14.38;3.10;;;10.70;99.90;;;;;;7305440;32;20198;-61
2022/10/25 19:19:32;;;;;;;15.55;3.40;;;10.70;99.90;;;;;;7309970;32;20138;-63
2022/10/25 19:23:35;;;;;;;10.43;2.60;;;10.60;99.90;;;;;;7318146;32;20156;-61
2022/10/25 19:27:37;;;;;;;8.45;2.80;;;10.60;99.90;;;;;;7326656;32;20153;-63
2022/10/25 19:31:39;;;;;;;14.85;3.55;;;10.50;99.90;;;;;;7313394;32;20285;-65
2022/10/25 19:35:40;;;;;;;8.63;2.58;;;10.40;99.90;;;;;;7314096;32;20130;-61
2022/10/25 19:39:43;;;;;;;8.57;2.55;;;10.40;99.90;;;;;;7312243;32;20114;-61
2022/10/25 19:43:45;;;;;;;6.82;2.67;;;10.20;99.90;;;;;;7316378;32;20111;-64
2022/10/25 19:47:48;;;;;;;10.48;2.70;;;10.20;99.90;;;;;;7310548;32;20138;-61
2022/10/25 19:51:50;;;;;;;11.30;2.60;;;10.00;99.90;;;;;;7317182;32;20100;-62
2022/10/25 19:56:00;;;;;;;13.50;2.37;;;10.00;99.90;;;;;;7315369;32;20126;-62
2022/10/25 20:00:03;;;;;;;13.32;2.58;;;9.90;99.90;;;;;;7317685;32;20111;-63
2022/10/25 20:04:05;;;;;;;13.80;2.50;;;9.90;99.90;;;;;;7318105;32;20115;-62
2022/10/25 20:08:06;;;;;;;11.82;2.70;;;9.80;99.90;;;;;;7315213;32;20495;-62
2022/10/25 20:12:08;;;;;;;8.75;2.45;;;9.80;99.90;;;;;;7310851;32;20263;-65
2022/10/25 20:16:12;;;;;;;8.25;2.53;;;9.70;99.90;;;;;;7315279;32;20218;-63
2022/10/25 20:20:14;;;;;;;19.15;3.17;;;9.60;99.90;;;;;;7315259;32;20216;-61
2022/10/25 20:24:16;;;;;;;8.70;2.65;;;9.60;99.90;;;;;;7316880;32;20108;-60
2022/10/25 20:28:17;;;;;;;13.40;2.95;;;9.60;99.90;;;;;;7317655;32;20103;-61
2022/10/25 20:32:20;;;;;;;12.88;3.50;;;9.60;99.90;;;;;;7306230;32;20280;-62
2022/10/25 20:36:22;;;;;;;10.63;2.65;;;9.60;99.90;;;;;;7314449;32;20120;-64
2022/10/25 20:40:24;;;;;;;11.43;2.55;;;9.50;99.90;;;;;;7316890;32;20234;-61
2022/10/25 20:44:25;;;;;;;10.98;2.95;;;9.60;99.90;;;;;;7315549;32;20528;-63
2022/10/25 20:48:27;;;;;;;16.30;3.15;;;9.60;99.90;;;;;;7309807;32;20111;-62
2022/10/25 20:52:29;;;;;;;9.00;2.45;;;9.50;99.90;;;;;;7317508;32;20270;-62
2022/10/25 20:56:31;;;;;;;10.48;2.70;;;9.50;99.90;;;;;;7311187;32;20175;-62
2022/10/25 21:00:33;;;;;;;11.90;2.87;;;9.50;99.90;;;;;;7313376;32;20429;-61
2022/10/25 21:04:35;;;;;;;9.10;2.40;;;9.40;99.90;;;;;;7312834;32;20187;-63
2022/10/25 21:08:53;;;;;;;12.57;3.12;;;9.40;99.90;;;;;;7313148;32;20092;-62
2022/10/25 21:12:57;;;;;;;15.10;3.03;;;9.30;99.90;;;;;;7312010;32;20219;-62
2022/10/25 21:16:59;;;;;;;8.98;2.67;;;9.30;99.90;;;;;;7323081;32;20202;-62